createdAt,value
2019-03-27T00:00:46.366Z,86.10
2019-03-27T00:05:51.215Z,85.80
2019-03-27T00:10:56.181Z,85.60
2019-03-27T00:16:00.925Z,85.70
2019-03-27T00:21:06.897Z,85.90
2019-03-27T00:26:11.944Z,86.00
2019-03-27T00:31:18.000Z,85.70
2019-03-27T00:36:22.736Z,86.30
2019-03-27T00:41:27.603Z,86.50
2019-03-27T00:46:32.322Z,87.00
2019-03-27T00:51:37.166Z,86.90
2019-03-27T00:56:42.239Z,87.00
2019-03-27T01:01:47.162Z,87.00
2019-03-27T01:06:52.036Z,87.40
2019-03-27T01:11:56.850Z,87.10
2019-03-27T01:17:02.131Z,87.40
2019-03-27T01:22:06.950Z,87.70
2019-03-27T01:27:11.925Z,88.40
2019-03-27T01:32:18.510Z,88.60
2019-03-27T01:37:23.235Z,88.20
2019-03-27T01:42:28.236Z,89.20
2019-03-27T01:47:33.039Z,89.20
2019-03-27T01:52:37.874Z,89.20
2019-03-27T01:57:42.832Z,88.60
2019-03-27T02:02:47.557Z,88.90
2019-03-27T02:07:52.315Z,88.90
2019-03-27T02:12:57.375Z,88.90
2019-03-27T02:18:02.107Z,89.60
2019-03-27T02:23:07.155Z,89.80
2019-03-27T02:28:11.898Z,89.80
2019-03-27T02:33:17.240Z,89.40
2019-03-27T02:38:21.980Z,89.30
2019-03-27T02:43:27.046Z,89.10
2019-03-27T02:48:31.790Z,89.30
2019-03-27T02:53:36.615Z,90.00
2019-03-27T02:58:41.350Z,89.40
2019-03-27T03:03:46.092Z,89.00
2019-03-27T03:08:51.065Z,89.60
2019-03-27T03:13:56.911Z,90.00
2019-03-27T03:19:01.789Z,89.30
2019-03-27T03:24:06.803Z,88.20
2019-03-27T03:29:11.882Z,88.90
2019-03-27T03:34:17.882Z,88.60
2019-03-27T03:39:23.692Z,89.70
2019-03-27T03:44:28.435Z,89.80
2019-03-27T03:49:33.280Z,89.40
2019-03-27T03:54:38.328Z,89.40
2019-03-27T03:59:44.014Z,89.80
2019-03-27T04:04:50.609Z,90.10
2019-03-27T04:09:55.342Z,89.70
2019-03-27T04:15:00.230Z,90.00
2019-03-27T04:20:07.598Z,90.20
2019-03-27T04:25:12.640Z,90.50
2019-03-27T04:30:17.656Z,90.40
2019-03-27T04:35:22.740Z,90.00
2019-03-27T04:40:27.459Z,90.00
2019-03-27T04:45:32.515Z,90.60
2019-03-27T04:50:37.579Z,90.20
2019-03-27T04:55:43.550Z,90.00
2019-03-27T05:00:49.521Z,89.00
2019-03-27T05:05:54.263Z,88.50
2019-03-27T05:10:59.091Z,89.40
2019-03-27T05:16:04.053Z,88.20
2019-03-27T05:21:08.898Z,88.30
2019-03-27T05:26:13.845Z,88.50
2019-03-27T05:31:18.593Z,88.40
2019-03-27T05:36:23.790Z,88.40
2019-03-27T05:41:28.696Z,89.30
2019-03-27T05:46:33.506Z,86.80
2019-03-27T05:51:38.371Z,86.00
2019-03-27T05:56:43.529Z,83.30
2019-03-27T06:01:48.575Z,82.40
2019-03-27T06:06:53.318Z,80.20
2019-03-27T06:11:58.038Z,80.20
2019-03-27T06:17:03.117Z,80.50
2019-03-27T06:22:07.798Z,81.40
2019-03-27T06:27:12.902Z,79.70
2019-03-27T06:32:17.645Z,79.00
2019-03-27T06:37:23.921Z,77.10
2019-03-27T06:42:28.664Z,76.40
2019-03-27T06:47:33.687Z,75.20
2019-03-27T06:52:38.762Z,74.80
2019-03-27T06:57:43.506Z,75.60
2019-03-27T07:02:48.247Z,76.80
2019-03-27T07:07:52.991Z,75.40
2019-03-27T07:12:57.809Z,75.30
2019-03-27T07:18:02.778Z,74.00
2019-03-27T07:23:07.828Z,74.30
2019-03-27T07:28:12.574Z,74.00
2019-03-27T07:33:18.334Z,74.80
2019-03-27T07:38:23.589Z,75.40
2019-03-27T07:43:28.642Z,76.90
2019-03-27T07:48:33.673Z,76.70
2019-03-27T07:53:38.435Z,78.70
2019-03-27T07:58:43.171Z,77.40
2019-03-27T08:03:47.920Z,77.50
2019-03-27T08:08:52.655Z,77.60
2019-03-27T08:13:57.725Z,77.00
2019-03-27T08:19:07.724Z,75.10
2019-03-27T08:24:09.342Z,73.80
2019-03-27T08:29:15.162Z,72.80
2019-03-27T08:34:20.053Z,71.10
2019-03-27T08:39:26.646Z,72.30
2019-03-27T08:44:31.382Z,70.90
2019-03-27T08:49:36.121Z,72.30
2019-03-27T08:54:41.174Z,70.90
2019-03-27T08:59:46.226Z,70.60
2019-03-27T09:04:51.247Z,68.30
2019-03-27T09:09:56.320Z,67.90
2019-03-27T09:15:01.368Z,66.20
2019-03-27T09:20:07.953Z,68.00
2019-03-27T09:25:13.009Z,67.00
2019-03-27T09:30:18.322Z,65.60
2019-03-27T09:35:23.407Z,67.80
2019-03-27T09:40:28.456Z,67.20
2019-03-27T09:45:33.205Z,66.50
2019-03-27T09:50:37.940Z,61.80
2019-03-27T09:55:42.683Z,62.60
2019-03-27T10:00:55.389Z,60.10
2019-03-27T10:06:00.344Z,59.20
2019-03-27T10:11:05.486Z,60.40
2019-03-27T10:16:10.661Z,60.50
2019-03-27T10:21:15.611Z,61.40
2019-03-27T10:26:20.297Z,60.60
2019-03-27T10:31:25.378Z,58.10
2019-03-27T10:36:30.141Z,60.10
2019-03-27T10:41:35.584Z,58.30
2019-03-27T10:46:40.293Z,59.30
2019-03-27T10:51:45.377Z,55.00
2019-03-27T10:56:50.339Z,52.10
2019-03-27T11:01:55.387Z,52.00
2019-03-27T11:07:00.209Z,50.50
2019-03-27T11:12:05.184Z,48.70
2019-03-27T11:17:10.206Z,51.70
2019-03-27T11:22:15.278Z,51.50
2019-03-27T11:27:20.325Z,51.10
2019-03-27T11:32:25.274Z,50.80
2019-03-27T11:37:30.424Z,50.90
2019-03-27T11:42:35.475Z,50.20
2019-03-27T11:47:40.522Z,49.60
2019-03-27T11:52:45.571Z,47.80
2019-03-27T11:57:50.622Z,47.20
2019-03-27T12:02:55.316Z,48.10
2019-03-27T12:08:00.417Z,46.90
2019-03-27T12:13:05.461Z,47.00
2019-03-27T12:18:11.434Z,47.10
2019-03-27T12:23:16.106Z,44.50
2019-03-27T12:28:20.916Z,47.10
2019-03-27T12:33:25.604Z,47.00
2019-03-27T12:38:30.710Z,47.40
2019-03-27T12:43:35.762Z,48.00
2019-03-27T12:48:40.687Z,49.30
2019-03-27T12:53:45.530Z,48.70
2019-03-27T12:58:50.602Z,46.50
2019-03-27T13:03:55.628Z,47.10
2019-03-27T13:09:00.699Z,47.00
2019-03-27T13:14:06.053Z,46.80
2019-03-27T13:19:10.794Z,48.40
2019-03-27T13:24:15.536Z,48.00
2019-03-27T13:29:20.585Z,49.40
2019-03-27T13:34:25.622Z,50.50
2019-03-27T13:39:30.683Z,50.60
2019-03-27T13:44:37.230Z,51.80
2019-03-27T13:49:42.519Z,52.10
2019-03-27T13:54:47.584Z,52.40
2019-03-27T13:59:52.363Z,52.40
2019-03-27T14:04:57.157Z,52.80
2019-03-27T14:10:01.847Z,55.20
2019-03-27T14:15:09.713Z,54.40
2019-03-27T14:20:15.464Z,57.30
2019-03-27T14:25:22.234Z,57.90
2019-03-27T14:30:46.875Z,59.10
2019-03-27T14:35:51.731Z,58.80
2019-03-27T14:40:56.546Z,60.10
2019-03-27T14:46:01.426Z,60.90
2019-03-27T14:51:07.254Z,62.70
2019-03-27T14:56:12.226Z,62.70
2019-03-27T15:01:17.279Z,63.00
2019-03-27T15:06:22.096Z,63.70
2019-03-27T15:11:27.069Z,65.20
2019-03-27T15:16:31.818Z,65.90
2019-03-27T15:21:36.633Z,66.80
2019-03-27T15:26:41.396Z,66.50
2019-03-27T15:31:46.341Z,67.20
2019-03-27T15:36:51.158Z,67.20
2019-03-27T15:41:56.131Z,67.60
2019-03-27T15:47:01.191Z,67.40
2019-03-27T15:52:06.102Z,67.20
2019-03-27T15:57:11.036Z,67.30
2019-03-27T16:02:16.023Z,67.50
2019-03-27T16:07:21.350Z,68.10
2019-03-27T16:12:26.107Z,68.90
2019-03-27T16:17:30.862Z,69.40
2019-03-27T16:22:49.499Z,68.30
2019-03-27T16:27:42.498Z,69.40
2019-03-27T16:32:47.244Z,69.40
2019-03-27T16:37:52.277Z,69.70
2019-03-27T16:42:57.033Z,70.30
2019-03-27T16:48:02.079Z,70.40
2019-03-27T16:53:06.975Z,70.90
2019-03-27T16:58:12.181Z,71.20
2019-03-27T17:03:17.009Z,71.10
2019-03-27T17:08:22.048Z,71.30
2019-03-27T17:13:27.041Z,71.50
2019-03-27T17:18:31.841Z,72.60
2019-03-27T17:23:36.808Z,73.50
2019-03-27T17:28:41.666Z,73.10
2019-03-27T17:33:46.394Z,73.00
2019-03-27T17:38:52.271Z,73.90
2019-03-27T17:43:57.414Z,74.10
2019-03-27T17:49:02.138Z,74.80
2019-03-27T17:54:19.971Z,74.80
2019-03-27T17:59:13.315Z,74.60
2019-03-27T18:04:18.098Z,74.90
2019-03-27T18:09:22.822Z,75.40
2019-03-27T18:14:27.914Z,75.40
2019-03-27T18:19:32.696Z,75.80
2019-03-27T18:24:37.682Z,75.90
2019-03-27T18:29:42.528Z,75.20
2019-03-27T18:34:47.497Z,77.40
2019-03-27T18:39:52.941Z,77.90
2019-03-27T18:44:57.904Z,78.40
2019-03-27T18:50:02.646Z,78.10
2019-03-27T18:55:07.712Z,78.30
2019-03-27T19:00:13.398Z,78.40
2019-03-27T19:05:18.508Z,78.80
2019-03-27T19:10:23.458Z,78.80
2019-03-27T19:15:28.201Z,79.00
2019-03-27T19:20:33.025Z,79.10
2019-03-27T19:25:37.989Z,79.00
2019-03-27T19:30:42.836Z,79.70
2019-03-27T19:35:47.782Z,80.70
2019-03-27T19:40:53.214Z,81.60
2019-03-27T19:45:58.191Z,82.20
2019-03-27T19:51:03.235Z,83.10
2019-03-27T19:56:08.054Z,83.20
2019-03-27T20:01:13.333Z,82.90
2019-03-27T20:06:18.177Z,82.90
2019-03-27T20:11:23.164Z,83.80
2019-03-27T20:16:28.185Z,84.80
2019-03-27T20:21:33.226Z,84.90
2019-03-27T20:26:38.042Z,85.20
2019-03-27T20:31:42.899Z,84.90
2019-03-27T20:36:47.758Z,84.80
2019-03-27T20:41:54.524Z,85.50
2019-03-27T20:46:59.391Z,85.30
2019-03-27T20:52:04.457Z,86.10
2019-03-27T20:57:09.493Z,86.80
2019-03-27T21:02:14.414Z,86.50
2019-03-27T21:07:19.261Z,86.70
2019-03-27T21:12:24.341Z,87.20
2019-03-27T21:17:29.083Z,87.40
2019-03-27T21:22:33.763Z,87.40
2019-03-27T21:27:38.532Z,87.80
2019-03-27T21:32:43.604Z,87.30
2019-03-27T21:37:48.322Z,88.10
2019-03-27T21:42:53.398Z,88.90
2019-03-27T21:47:58.139Z,89.80
2019-03-27T21:53:03.186Z,90.60
2019-03-27T21:58:08.214Z,90.60
2019-03-27T22:03:12.989Z,90.60
2019-03-27T22:08:18.027Z,91.00
2019-03-27T22:13:23.384Z,91.00
2019-03-27T22:18:28.437Z,91.00
2019-03-27T22:23:33.487Z,91.00
2019-03-27T22:28:38.203Z,91.00
2019-03-27T22:33:43.273Z,91.20
2019-03-27T22:38:48.019Z,91.20
2019-03-27T22:43:53.066Z,91.20
2019-03-27T22:48:58.090Z,91.20
2019-03-27T22:54:03.164Z,91.30
2019-03-27T22:59:07.986Z,91.30
2019-03-27T23:04:12.956Z,91.30
2019-03-27T23:09:17.697Z,91.40
2019-03-27T23:14:22.521Z,91.30
2019-03-27T23:19:27.466Z,91.00
2019-03-27T23:24:32.309Z,91.40
2019-03-27T23:29:37.155Z,91.10
2019-03-27T23:34:42.619Z,91.40
2019-03-27T23:39:47.690Z,91.20
2019-03-27T23:44:53.657Z,91.10
2019-03-27T23:49:58.478Z,91.10
2019-03-27T23:55:03.448Z,91.20
